sensor_id;sensor_type;location;lat;lon;timestamp;pressure;altitude;pressure_sealevel;temperature;humidity
25560;BME280;13450;49.374;8.584;2023-08-12T00:01:48;100646.19;;;21.51;nan
25560;BME280;13450;49.374;8.584;2023-08-12T00:04:14;100641.28;;;21.53;nan
25560;BME280;13450;49.374;8.584;2023-08-12T00:06:40;100648.91;;;21.51;nan
25560;BME280;13450;49.374;8.584;2023-08-12T00:09:06;100642.44;;;21.57;nan
25560;BME280;13450;49.374;8.584;2023-08-12T00:11:33;100639.72;;;21.57;nan
25560;BME280;13450;49.374;8.584;2023-08-12T00:13:58;100644.25;;;21.51;nan
25560;BME280;13450;49.374;8.584;2023-08-12T00:16:23;100643.47;;;21.51;nan
25560;BME280;13450;49.374;8.584;2023-08-12T00:18:48;100631.72;;;21.50;nan
25560;BME280;13450;49.374;8.584;2023-08-12T00:21:14;100630.16;;;21.54;nan
25560;BME280;13450;49.374;8.584;2023-08-12T00:23:42;100629.59;;;21.52;nan
25560;BME280;13450;49.374;8.584;2023-08-12T00:26:08;100628.50;;;21.53;nan
25560;BME280;13450;49.374;8.584;2023-08-12T00:28:34;100630.66;;;21.51;nan
25560;BME280;13450;49.374;8.584;2023-08-12T00:30:59;100621.94;;;21.49;nan
25560;BME280;13450;49.374;8.584;2023-08-12T00:33:24;100621.09;;;21.49;nan
25560;BME280;13450;49.374;8.584;2023-08-12T00:35:50;100608.31;;;21.49;nan
25560;BME280;13450;49.374;8.584;2023-08-12T00:38:17;100611.09;;;21.54;nan
25560;BME280;13450;49.374;8.584;2023-08-12T00:40:46;100605.66;;;21.54;nan
25560;BME280;13450;49.374;8.584;2023-08-12T00:43:11;100596.84;;;21.47;nan
25560;BME280;13450;49.374;8.584;2023-08-12T00:45:37;100596.28;;;21.45;nan
25560;BME280;13450;49.374;8.584;2023-08-12T00:48:03;100593.56;;;21.45;nan
25560;BME280;13450;49.374;8.584;2023-08-12T00:50:30;100591.34;;;21.42;nan
25560;BME280;13450;49.374;8.584;2023-08-12T00:52:55;100586.75;;;21.42;nan
25560;BME280;13450;49.374;8.584;2023-08-12T00:55:23;100584.28;;;21.41;nan
25560;BME280;13450;49.374;8.584;2023-08-12T00:57:49;100579.38;;;21.43;nan
25560;BME280;13450;49.374;8.584;2023-08-12T01:00:15;100586.16;;;21.40;nan
25560;BME280;13450;49.374;8.584;2023-08-12T01:02:44;100578.81;;;21.41;nan
25560;BME280;13450;49.374;8.584;2023-08-12T01:05:16;100581.00;;;21.39;nan
25560;BME280;13450;49.374;8.584;2023-08-12T01:07:42;100579.84;;;21.35;nan
25560;BME280;13450;49.374;8.584;2023-08-12T01:10:08;100581.50;;;21.36;nan
25560;BME280;13450;49.374;8.584;2023-08-12T01:12:44;100577.19;;;21.40;nan
25560;BME280;13450;49.374;8.584;2023-08-12T01:15:15;100585.84;;;21.37;nan
25560;BME280;13450;49.374;8.584;2023-08-12T01:17:42;100579.84;;;21.35;nan
25560;BME280;13450;49.374;8.584;2023-08-12T01:20:09;100585.31;;;21.35;nan
25560;BME280;13450;49.374;8.584;2023-08-12T01:22:41;100580.34;;;21.32;nan
25560;BME280;13450;49.374;8.584;2023-08-12T01:25:08;100582.25;;;21.31;nan
25560;BME280;13450;49.374;8.584;2023-08-12T01:27:35;100585.50;;;21.28;nan
25560;BME280;13450;49.374;8.584;2023-08-12T01:30:01;100593.91;;;21.26;nan
25560;BME280;13450;49.374;8.584;2023-08-12T01:35:14;100601.44;;;21.19;nan
25560;BME280;13450;49.374;8.584;2023-08-12T01:37:43;100597.25;;;21.11;nan
25560;BME280;13450;49.374;8.584;2023-08-12T01:40:11;100601.78;;;21.06;nan
25560;BME280;13450;49.374;8.584;2023-08-12T01:42:39;100603.25;;;20.91;nan
25560;BME280;13450;49.374;8.584;2023-08-12T01:45:08;100603.88;;;20.81;nan
25560;BME280;13450;49.374;8.584;2023-08-12T01:47:33;100609.66;;;20.68;nan
25560;BME280;13450;49.374;8.584;2023-08-12T01:49:59;100598.47;;;20.64;nan
25560;BME280;13450;49.374;8.584;2023-08-12T01:52:24;100600.63;;;20.62;nan
25560;BME280;13450;49.374;8.584;2023-08-12T01:54:50;100602.19;;;20.58;nan
25560;BME280;13450;49.374;8.584;2023-08-12T01:57:15;100603.19;;;20.51;nan
25560;BME280;13450;49.374;8.584;2023-08-12T01:59:41;100597.19;;;20.49;nan
25560;BME280;13450;49.374;8.584;2023-08-12T02:02:08;100591.22;;;20.52;nan
25560;BME280;13450;49.374;8.584;2023-08-12T02:04:33;100587.47;;;20.54;nan
25560;BME280;13450;49.374;8.584;2023-08-12T02:06:59;100596.84;;;20.63;nan
25560;BME280;13450;49.374;8.584;2023-08-12T02:09:24;100596.91;;;20.68;nan
25560;BME280;13450;49.374;8.584;2023-08-12T02:11:49;100592.03;;;20.70;nan
25560;BME280;13450;49.374;8.584;2023-08-12T02:14:15;100594.25;;;20.73;nan
25560;BME280;13450;49.374;8.584;2023-08-12T02:16:40;100593.44;;;20.73;nan
25560;BME280;13450;49.374;8.584;2023-08-12T02:19:06;100594.84;;;20.75;nan
25560;BME280;13450;49.374;8.584;2023-08-12T02:21:31;100598.63;;;20.74;nan
25560;BME280;13450;49.374;8.584;2023-08-12T02:23:57;100590.97;;;20.71;nan
25560;BME280;13450;49.374;8.584;2023-08-12T02:26:22;100594.00;;;20.75;nan
25560;BME280;13450;49.374;8.584;2023-08-12T02:28:50;100591.06;;;20.76;nan
25560;BME280;13450;49.374;8.584;2023-08-12T02:31:16;100597.63;;;20.81;nan
25560;BME280;13450;49.374;8.584;2023-08-12T02:33:42;100600.09;;;20.82;nan
25560;BME280;13450;49.374;8.584;2023-08-12T02:36:07;100599.84;;;20.84;nan
25560;BME280;13450;49.374;8.584;2023-08-12T02:38:34;100596.31;;;20.83;nan
25560;BME280;13450;49.374;8.584;2023-08-12T02:40:59;100597.94;;;20.84;nan
25560;BME280;13450;49.374;8.584;2023-08-12T02:43:25;100600.91;;;20.83;nan
25560;BME280;13450;49.374;8.584;2023-08-12T02:45:51;100603.06;;;20.81;nan
25560;BME280;13450;49.374;8.584;2023-08-12T02:48:16;100611.00;;;20.82;nan
25560;BME280;13450;49.374;8.584;2023-08-12T02:50:41;100604.22;;;20.85;nan
25560;BME280;13450;49.374;8.584;2023-08-12T02:53:07;100600.66;;;20.84;nan
25560;BME280;13450;49.374;8.584;2023-08-12T02:55:33;100590.88;;;20.83;nan
25560;BME280;13450;49.374;8.584;2023-08-12T02:58:02;100592.50;;;20.84;nan
25560;BME280;13450;49.374;8.584;2023-08-12T03:00:28;100592.84;;;20.88;nan
25560;BME280;13450;49.374;8.584;2023-08-12T03:02:54;100597.56;;;20.93;nan
25560;BME280;13450;49.374;8.584;2023-08-12T03:05:20;100610.31;;;20.92;nan
25560;BME280;13450;49.374;8.584;2023-08-12T03:07:45;100606.44;;;20.88;nan
25560;BME280;13450;49.374;8.584;2023-08-12T03:10:11;100603.72;;;20.88;nan
25560;BME280;13450;49.374;8.584;2023-08-12T03:12:38;100596.16;;;20.90;nan
25560;BME280;13450;49.374;8.584;2023-08-12T03:15:06;100599.69;;;20.90;nan
25560;BME280;13450;49.374;8.584;2023-08-12T03:17:32;100602.41;;;20.90;nan
25560;BME280;13450;49.374;8.584;2023-08-12T03:19:58;100598.63;;;20.92;nan
25560;BME280;13450;49.374;8.584;2023-08-12T03:22:29;100602.16;;;20.92;nan
25560;BME280;13450;49.374;8.584;2023-08-12T03:24:54;100602.16;;;20.92;nan
25560;BME280;13450;49.374;8.584;2023-08-12T03:27:20;100607.34;;;20.94;nan
25560;BME280;13450;49.374;8.584;2023-08-12T03:29:45;100597.81;;;20.91;nan
25560;BME280;13450;49.374;8.584;2023-08-12T03:32:29;100598.94;;;20.95;nan
25560;BME280;13450;49.374;8.584;2023-08-12T03:34:54;100600.09;;;20.99;nan
25560;BME280;13450;49.374;8.584;2023-08-12T03:37:19;100609.16;;;21.05;nan
25560;BME280;13450;49.374;8.584;2023-08-12T03:39:45;100604.50;;;21.06;nan
25560;BME280;13450;49.374;8.584;2023-08-12T03:42:10;100604.03;;;21.09;nan
25560;BME280;13450;49.374;8.584;2023-08-12T03:44:35;100601.56;;;21.07;nan
25560;BME280;13450;49.374;8.584;2023-08-12T03:47:01;100603.44;;;21.07;nan
25560;BME280;13450;49.374;8.584;2023-08-12T03:49:26;100590.34;;;21.03;nan
25560;BME280;13450;49.374;8.584;2023-08-12T03:51:51;100590.34;;;21.03;nan
25560;BME280;13450;49.374;8.584;2023-08-12T03:54:17;100593.31;;;21.02;nan
25560;BME280;13450;49.374;8.584;2023-08-12T03:56:43;100583.28;;;21.02;nan
25560;BME280;13450;49.374;8.584;2023-08-12T03:59:08;100574.53;;;21.00;nan
25560;BME280;13450;49.374;8.584;2023-08-12T04:01:33;100572.31;;;20.97;nan
25560;BME280;13450;49.374;8.584;2023-08-12T04:03:58;100570.66;;;20.96;nan
25560;BME280;13450;49.374;8.584;2023-08-12T04:06:24;100582.13;;;20.98;nan
25560;BME280;13450;49.374;8.584;2023-08-12T04:08:49;100581.31;;;20.98;nan
25560;BME280;13450;49.374;8.584;2023-08-12T04:11:14;100576.69;;;20.98;nan
25560;BME280;13450;49.374;8.584;2023-08-12T04:13:40;100589.72;;;20.96;nan
25560;BME280;13450;49.374;8.584;2023-08-12T04:16:05;100597.88;;;20.96;nan
25560;BME280;13450;49.374;8.584;2023-08-12T04:18:30;100600.59;;;20.96;nan
25560;BME280;13450;49.374;8.584;2023-08-12T04:20:56;100602.22;;;20.97;nan
25560;BME280;13450;49.374;8.584;2023-08-12T04:23:21;100591.09;;;20.99;nan
25560;BME280;13450;49.374;8.584;2023-08-12T04:25:47;100597.31;;;20.94;nan
25560;BME280;13450;49.374;8.584;2023-08-12T04:28:13;100605.41;;;20.89;nan
25560;BME280;13450;49.374;8.584;2023-08-12T04:30:43;100600.91;;;20.83;nan
25560;BME280;13450;49.374;8.584;2023-08-12T04:33:12;100600.34;;;20.81;nan
25560;BME280;13450;49.374;8.584;2023-08-12T04:35:38;100597.56;;;20.75;nan
25560;BME280;13450;49.374;8.584;2023-08-12T04:38:09;100600.28;;;20.75;nan
25560;BME280;13450;49.374;8.584;2023-08-12T04:40:38;100601.94;;;20.76;nan
25560;BME280;13450;49.374;8.584;2023-08-12T04:43:03;100600.34;;;20.81;nan
25560;BME280;13450;49.374;8.584;2023-08-12T04:45:29;100603.63;;;20.83;nan
25560;BME280;13450;49.374;8.584;2023-08-12T04:47:56;100593.34;;;20.85;nan
25560;BME280;13450;49.374;8.584;2023-08-12T04:50:22;100584.75;;;20.93;nan
25560;BME280;13450;49.374;8.584;2023-08-12T04:52:47;100590.84;;;21.00;nan
25560;BME280;13450;49.374;8.584;2023-08-12T04:55:12;100592.81;;;21.05;nan
25560;BME280;13450;49.374;8.584;2023-08-12T04:57:38;100592.81;;;21.05;nan
25560;BME280;13450;49.374;8.584;2023-08-12T05:00:08;100590.34;;;21.03;nan
25560;BME280;13450;49.374;8.584;2023-08-12T05:02:36;100586.06;;;21.08;nan
25560;BME280;13450;49.374;8.584;2023-08-12T05:05:04;100586.38;;;21.11;nan
25560;BME280;13450;49.374;8.584;2023-08-12T05:07:30;100579.66;;;21.19;nan
25560;BME280;13450;49.374;8.584;2023-08-12T05:09:56;100571.56;;;21.24;nan
25560;BME280;13450;49.374;8.584;2023-08-12T05:12:21;100565.31;;;21.24;nan
25560;BME280;13450;49.374;8.584;2023-08-12T05:14:47;100566.69;;;21.26;nan
25560;BME280;13450;49.374;8.584;2023-08-12T05:17:12;100572.44;;;21.30;nan
25560;BME280;13450;49.374;8.584;2023-08-12T05:19:37;100568.13;;;21.34;nan
25560;BME280;13450;49.374;8.584;2023-08-12T05:22:02;100570.91;;;21.39;nan
25560;BME280;13450;49.374;8.584;2023-08-12T05:24:30;100573.09;;;21.37;nan
25560;BME280;13450;49.374;8.584;2023-08-12T05:26:56;100576.56;;;21.33;nan
25560;BME280;13450;49.374;8.584;2023-08-12T05:29:24;100578.06;;;21.23;nan
25560;BME280;13450;49.374;8.584;2023-08-12T05:31:49;100582.38;;;21.19;nan
25560;BME280;13450;49.374;8.584;2023-08-12T05:34:14;100574.16;;;21.14;nan
25560;BME280;13450;49.374;8.584;2023-08-12T05:36:39;100567.56;;;21.10;nan
25560;BME280;13450;49.374;8.584;2023-08-12T05:39:07;100568.06;;;21.07;nan
25560;BME280;13450;49.374;8.584;2023-08-12T05:41:32;100563.72;;;21.06;nan
25560;BME280;13450;49.374;8.584;2023-08-12T05:43:57;100576.31;;;21.12;nan
25560;BME280;13450;49.374;8.584;2023-08-12T05:46:23;100566.84;;;21.14;nan
25560;BME280;13450;49.374;8.584;2023-08-12T05:48:48;100566.84;;;21.14;nan
25560;BME280;13450;49.374;8.584;2023-08-12T05:51:13;100567.13;;;21.18;nan
25560;BME280;13450;49.374;8.584;2023-08-12T05:53:39;100574.75;;;21.16;nan
25560;BME280;13450;49.374;8.584;2023-08-12T05:56:04;100570.34;;;21.15;nan
25560;BME280;13450;49.374;8.584;2023-08-12T05:58:29;100570.41;;;21.20;nan
25560;BME280;13450;49.374;8.584;2023-08-12T06:00:55;100564.22;;;21.25;nan
25560;BME280;13450;49.374;8.584;2023-08-12T06:03:20;100573.28;;;21.30;nan
25560;BME280;13450;49.374;8.584;2023-08-12T06:05:48;100572.19;;;21.32;nan
25560;BME280;13450;49.374;8.584;2023-08-12T06:08:13;100576.06;;;21.36;nan
25560;BME280;13450;49.374;8.584;2023-08-12T06:10:39;100575.03;;;21.42;nan
25560;BME280;13450;49.374;8.584;2023-08-12T06:13:05;100577.78;;;21.47;nan
25560;BME280;13450;49.374;8.584;2023-08-12T06:15:31;100579.56;;;21.59;nan
25560;BME280;13450;49.374;8.584;2023-08-12T06:17:59;100569.56;;;21.64;nan
25560;BME280;13450;49.374;8.584;2023-08-12T06:20:27;100566.63;;;21.71;nan
25560;BME280;13450;49.374;8.584;2023-08-12T06:22:52;100573.75;;;21.72;nan
25560;BME280;13450;49.374;8.584;2023-08-12T06:25:18;100581.13;;;21.77;nan
25560;BME280;13450;49.374;8.584;2023-08-12T06:27:44;100591.25;;;21.81;nan
25560;BME280;13450;49.374;8.584;2023-08-12T06:30:10;100603.25;;;21.80;nan
25560;BME280;13450;49.374;8.584;2023-08-12T06:32:35;100599.94;;;21.78;nan
25560;BME280;13450;49.374;8.584;2023-08-12T06:35:01;100602.19;;;21.87;nan
25560;BME280;13450;49.374;8.584;2023-08-12T06:37:26;100591.72;;;22.01;nan
25560;BME280;13450;49.374;8.584;2023-08-12T06:39:51;100593.09;;;22.36;nan
25560;BME280;13450;49.374;8.584;2023-08-12T06:42:17;100580.53;;;22.73;nan
25560;BME280;13450;49.374;8.584;2023-08-12T06:44:42;100563.81;;;23.02;nan
25560;BME280;13450;49.374;8.584;2023-08-12T06:47:07;100575.34;;;23.25;nan
25560;BME280;13450;49.374;8.584;2023-08-12T06:49:33;100572.38;;;23.32;nan
25560;BME280;13450;49.374;8.584;2023-08-12T06:51:58;100574.59;;;23.35;nan
25560;BME280;13450;49.374;8.584;2023-08-12T06:54:23;100581.91;;;23.29;nan
25560;BME280;13450;49.374;8.584;2023-08-12T06:56:50;100591.19;;;23.28;nan
25560;BME280;13450;49.374;8.584;2023-08-12T06:59:15;100590.16;;;23.40;nan
25560;BME280;13450;49.374;8.584;2023-08-12T07:01:43;100590.75;;;23.52;nan
25560;BME280;13450;49.374;8.584;2023-08-12T07:04:08;100598.44;;;23.66;nan
25560;BME280;13450;49.374;8.584;2023-08-12T07:06:36;100597.91;;;23.79;nan
25560;BME280;13450;49.374;8.584;2023-08-12T07:09:01;100610.47;;;23.90;nan
25560;BME280;13450;49.374;8.584;2023-08-12T07:11:27;100614.88;;;24.02;nan
25560;BME280;13450;49.374;8.584;2023-08-12T07:13:52;100610.81;;;24.10;nan
25560;BME280;13450;49.374;8.584;2023-08-12T07:16:17;100602.84;;;23.98;nan
25560;BME280;13450;49.374;8.584;2023-08-12T07:18:42;100596.81;;;23.85;nan
25560;BME280;13450;49.374;8.584;2023-08-12T07:21:08;100595.75;;;23.92;nan
25560;BME280;13450;49.374;8.584;2023-08-12T07:23:33;100600.09;;;23.93;nan
25560;BME280;13450;49.374;8.584;2023-08-12T07:25:58;100603.94;;;24.02;nan
25560;BME280;13450;49.374;8.584;2023-08-12T07:28:24;100608.03;;;24.04;nan
25560;BME280;13450;49.374;8.584;2023-08-12T07:30:51;100603.44;;;24.10;nan
25560;BME280;13450;49.374;8.584;2023-08-12T07:33:20;100597.38;;;24.08;nan
25560;BME280;13450;49.374;8.584;2023-08-12T07:35:46;100605.63;;;24.19;nan
25560;BME280;13450;49.374;8.584;2023-08-12T07:38:12;100602.88;;;24.24;nan
25560;BME280;13450;49.374;8.584;2023-08-12T07:40:37;100595.75;;;24.23;nan
25560;BME280;13450;49.374;8.584;2023-08-12T07:43:04;100591.41;;;24.22;nan
25560;BME280;13450;49.374;8.584;2023-08-12T07:45:30;100594.13;;;24.16;nan
25560;BME280;13450;49.374;8.584;2023-08-12T07:47:55;100579.63;;;24.11;nan
25560;BME280;13450;49.374;8.584;2023-08-12T07:50:20;100576.91;;;24.11;nan
25560;BME280;13450;49.374;8.584;2023-08-12T07:52:46;100582.38;;;24.11;nan
25560;BME280;13450;49.374;8.584;2023-08-12T07:55:11;100573.91;;;24.17;nan
25560;BME280;13450;49.374;8.584;2023-08-12T07:57:37;100566.25;;;24.20;nan
25560;BME280;13450;49.374;8.584;2023-08-12T08:00:05;100573.91;;;24.28;nan
25560;BME280;13450;49.374;8.584;2023-08-12T08:02:33;100566.78;;;24.37;nan
25560;BME280;13450;49.374;8.584;2023-08-12T08:04:58;100569.53;;;24.42;nan
25560;BME280;13450;49.374;8.584;2023-08-12T08:07:23;100572.50;;;24.46;nan
25560;BME280;13450;49.374;8.584;2023-08-12T08:09:51;100584.25;;;24.62;nan
25560;BME280;13450;49.374;8.584;2023-08-12T08:12:16;100578.22;;;24.86;nan
25560;BME280;13450;49.374;8.584;2023-08-12T08:14:42;100576.50;;;25.06;nan
25560;BME280;13450;49.374;8.584;2023-08-12T08:17:07;100578.59;;;25.25;nan
25560;BME280;13450;49.374;8.584;2023-08-12T08:19:32;100582.34;;;25.39;nan
25560;BME280;13450;49.374;8.584;2023-08-12T08:21:58;100576.53;;;25.51;nan
25560;BME280;13450;49.374;8.584;2023-08-12T08:24:23;100569.25;;;25.81;nan
25560;BME280;13450;49.374;8.584;2023-08-12T08:26:48;100572.69;;;25.97;nan
25560;BME280;13450;49.374;8.584;2023-08-12T08:29:14;100570.50;;;25.99;nan
25560;BME280;13450;49.374;8.584;2023-08-12T08:31:39;100579.88;;;25.88;nan
25560;BME280;13450;49.374;8.584;2023-08-12T08:34:06;100582.81;;;26.02;nan
25560;BME280;13450;49.374;8.584;2023-08-12T08:36:31;100588.63;;;26.30;nan
25560;BME280;13450;49.374;8.584;2023-08-12T08:38:59;100586.59;;;26.41;nan
25560;BME280;13450;49.374;8.584;2023-08-12T08:41:30;100580.38;;;26.60;nan
25560;BME280;13450;49.374;8.584;2023-08-12T08:44:00;100580.00;;;26.96;nan
25560;BME280;13450;49.374;8.584;2023-08-12T08:46:28;100583.69;;;27.30;nan
25560;BME280;13450;49.374;8.584;2023-08-12T08:48:55;100592.78;;;27.69;nan
25560;BME280;13450;49.374;8.584;2023-08-12T08:51:20;100597.16;;;27.89;nan
25560;BME280;13450;49.374;8.584;2023-08-12T08:53:46;100594.28;;;27.80;nan
25560;BME280;13450;49.374;8.584;2023-08-12T08:56:12;100595.59;;;28.02;nan
25560;BME280;13450;49.374;8.584;2023-08-12T08:58:40;100589.66;;;27.95;nan
25560;BME280;13450;49.374;8.584;2023-08-12T09:01:08;100575.53;;;28.02;nan
25560;BME280;13450;49.374;8.584;2023-08-12T09:03:35;100578.38;;;28.11;nan
25560;BME280;13450;49.374;8.584;2023-08-12T09:06:05;100587.53;;;28.25;nan
25560;BME280;13450;49.374;8.584;2023-08-12T09:08:33;100586.78;;;28.19;nan
25560;BME280;13450;49.374;8.584;2023-08-12T09:11:01;100575.63;;;28.30;nan
25560;BME280;13450;49.374;8.584;2023-08-12T09:13:27;100568.78;;;28.27;nan
25560;BME280;13450;49.374;8.584;2023-08-12T09:15:53;100572.16;;;28.38;nan
25560;BME280;13450;49.374;8.584;2023-08-12T09:18:18;100575.75;;;28.39;nan
25560;BME280;13450;49.374;8.584;2023-08-12T09:20:44;100582.78;;;28.45;nan
25560;BME280;13450;49.374;8.584;2023-08-12T09:23:09;100576.06;;;28.65;nan
25560;BME280;13450;49.374;8.584;2023-08-12T09:25:41;100567.94;;;28.74;nan
25560;BME280;13450;49.374;8.584;2023-08-12T09:28:09;100574.97;;;28.80;nan
25560;BME280;13450;49.374;8.584;2023-08-12T09:30:35;100574.97;;;28.80;nan
25560;BME280;13450;49.374;8.584;2023-08-12T09:33:01;100567.53;;;28.81;nan
25560;BME280;13450;49.374;8.584;2023-08-12T09:35:38;100564.97;;;28.70;nan
25560;BME280;13450;49.374;8.584;2023-08-12T09:38:05;100572.50;;;28.65;nan
25560;BME280;13450;49.374;8.584;2023-08-12T09:40:32;100565.50;;;29.01;nan
25560;BME280;13450;49.374;8.584;2023-08-12T09:43:03;100563.59;;;29.52;nan
25560;BME280;13450;49.374;8.584;2023-08-12T09:45:33;100560.72;;;29.80;nan
25560;BME280;13450;49.374;8.584;2023-08-12T09:47:59;100558.66;;;29.86;nan
25560;BME280;13450;49.374;8.584;2023-08-12T09:50:27;100556.31;;;30.02;nan
25560;BME280;13450;49.374;8.584;2023-08-12T09:52:55;100558.56;;;30.00;nan
25560;BME280;13450;49.374;8.584;2023-08-12T09:55:23;100557.56;;;29.73;nan
25560;BME280;13450;49.374;8.584;2023-08-12T09:57:51;100553.81;;;29.69;nan
25560;BME280;13450;49.374;8.584;2023-08-12T10:00:18;100559.56;;;29.81;nan
25560;BME280;13450;49.374;8.584;2023-08-12T10:02:45;100544.00;;;30.08;nan
25560;BME280;13450;49.374;8.584;2023-08-12T10:05:31;100545.16;;;30.07;nan
25560;BME280;13450;49.374;8.584;2023-08-12T10:07:57;100555.00;;;30.22;nan
25560;BME280;13450;49.374;8.584;2023-08-12T10:10:24;100559.66;;;30.13;nan
25560;BME280;13450;49.374;8.584;2023-08-12T10:12:51;100550.38;;;29.86;nan
25560;BME280;13450;49.374;8.584;2023-08-12T10:15:19;100548.03;;;30.02;nan
25560;BME280;13450;49.374;8.584;2023-08-12T10:17:46;100559.31;;;30.37;nan
25560;BME280;13450;49.374;8.584;2023-08-12T10:20:13;100561.31;;;30.00;nan
25560;BME280;13450;49.374;8.584;2023-08-12T10:22:40;100563.34;;;29.48;nan
25560;BME280;13450;49.374;8.584;2023-08-12T10:25:07;100565.50;;;29.15;nan
25560;BME280;13450;49.374;8.584;2023-08-12T10:27:34;100562.63;;;28.92;nan
25560;BME280;13450;49.374;8.584;2023-08-12T10:30:03;100571.50;;;28.89;nan
25560;BME280;13450;49.374;8.584;2023-08-12T10:32:28;100574.78;;;29.05;nan
25560;BME280;13450;49.374;8.584;2023-08-12T10:34:55;100574.25;;;29.17;nan
25560;BME280;13450;49.374;8.584;2023-08-12T10:37:24;100582.69;;;29.34;nan
25560;BME280;13450;49.374;8.584;2023-08-12T10:39:53;100567.22;;;29.61;nan
25560;BME280;13450;49.374;8.584;2023-08-12T10:42:49;100557.81;;;29.62;nan
25560;BME280;13450;49.374;8.584;2023-08-12T10:45:16;100558.44;;;29.59;nan
25560;BME280;13450;49.374;8.584;2023-08-12T10:47:47;100549.53;;;30.08;nan
25560;BME280;13450;49.374;8.584;2023-08-12T10:50:19;100552.66;;;30.79;nan
25560;BME280;13450;49.374;8.584;2023-08-12T10:52:45;100551.94;;;31.23;nan
25560;BME280;13450;49.374;8.584;2023-08-12T10:55:27;100555.34;;;31.19;nan
25560;BME280;13450;49.374;8.584;2023-08-12T10:57:58;100558.03;;;30.44;nan
25560;BME280;13450;49.374;8.584;2023-08-12T11:00:24;100563.59;;;29.98;nan
25560;BME280;13450;49.374;8.584;2023-08-12T11:02:56;100560.53;;;29.40;nan
25560;BME280;13450;49.374;8.584;2023-08-12T11:05:24;100559.16;;;28.86;nan
25560;BME280;13450;49.374;8.584;2023-08-12T11:07:59;100567.66;;;28.28;nan
25560;BME280;13450;49.374;8.584;2023-08-12T11:10:32;100582.34;;;27.71;nan
25560;BME280;13450;49.374;8.584;2023-08-12T11:12:58;100599.94;;;27.26;nan
25560;BME280;13450;49.374;8.584;2023-08-12T11:15:32;100614.06;;;26.95;nan
25560;BME280;13450;49.374;8.584;2023-08-12T11:17:58;100622.59;;;26.64;nan
25560;BME280;13450;49.374;8.584;2023-08-12T11:20:26;100685.44;;;24.88;nan
25560;BME280;13450;49.374;8.584;2023-08-12T11:22:55;100643.56;;;23.99;nan
25560;BME280;13450;49.374;8.584;2023-08-12T11:25:21;100660.88;;;23.41;nan
25560;BME280;13450;49.374;8.584;2023-08-12T11:27:47;100655.50;;;23.08;nan
25560;BME280;13450;49.374;8.584;2023-08-12T11:30:15;100659.66;;;22.78;nan
25560;BME280;13450;49.374;8.584;2023-08-12T11:32:46;100665.66;;;22.75;nan
25560;BME280;13450;49.374;8.584;2023-08-12T11:35:13;100698.69;;;22.51;nan
25560;BME280;13450;49.374;8.584;2023-08-12T11:37:41;100680.53;;;22.29;nan
25560;BME280;13450;49.374;8.584;2023-08-12T11:40:09;100684.03;;;22.25;nan
25560;BME280;13450;49.374;8.584;2023-08-12T11:42:39;100677.03;;;22.06;nan
25560;BME280;13450;49.374;8.584;2023-08-12T11:45:05;100673.19;;;22.02;nan
25560;BME280;13450;49.374;8.584;2023-08-12T11:47:33;100646.28;;;21.84;nan
25560;BME280;13450;49.374;8.584;2023-08-12T11:50:02;100634.06;;;21.64;nan
25560;BME280;13450;49.374;8.584;2023-08-12T11:52:27;100637.22;;;21.55;nan
25560;BME280;13450;49.374;8.584;2023-08-12T11:54:55;100632.88;;;21.54;nan
25560;BME280;13450;49.374;8.584;2023-08-12T11:57:22;100622.53;;;21.56;nan
25560;BME280;13450;49.374;8.584;2023-08-12T11:59:47;100631.34;;;21.64;nan
25560;BME280;13450;49.374;8.584;2023-08-12T12:02:13;100626.88;;;21.75;nan
25560;BME280;13450;49.374;8.584;2023-08-12T12:04:41;100621.72;;;22.06;nan
25560;BME280;13450;49.374;8.584;2023-08-12T12:07:16;100618.78;;;22.45;nan
25560;BME280;13450;49.374;8.584;2023-08-12T12:09:45;100629.13;;;22.76;nan
25560;BME280;13450;49.374;8.584;2023-08-12T12:12:12;100611.38;;;23.27;nan
25560;BME280;13450;49.374;8.584;2023-08-12T12:14:38;100614.88;;;24.64;nan
25560;BME280;13450;49.374;8.584;2023-08-12T12:17:07;100593.84;;;25.41;nan
25560;BME280;13450;49.374;8.584;2023-08-12T12:19:34;100588.63;;;25.45;nan
25560;BME280;13450;49.374;8.584;2023-08-12T12:22:03;100585.84;;;25.50;nan
25560;BME280;13450;49.374;8.584;2023-08-12T12:24:30;100596.09;;;25.29;nan
25560;BME280;13450;49.374;8.584;2023-08-12T12:26:56;100596.72;;;25.10;nan
25560;BME280;13450;49.374;8.584;2023-08-12T12:29:24;100584.06;;;25.25;nan
25560;BME280;13450;49.374;8.584;2023-08-12T12:31:49;100571.19;;;25.76;nan
25560;BME280;13450;49.374;8.584;2023-08-12T12:34:14;100575.94;;;26.64;nan
25560;BME280;13450;49.374;8.584;2023-08-12T12:36:40;100590.09;;;29.48;nan
25560;BME280;13450;49.374;8.584;2023-08-12T12:39:06;100581.69;;;32.14;nan
25560;BME280;13450;49.374;8.584;2023-08-12T12:41:32;100575.03;;;32.63;nan
25560;BME280;13450;49.374;8.584;2023-08-12T12:44:00;100574.59;;;32.82;nan
25560;BME280;13450;49.374;8.584;2023-08-12T12:46:26;100574.91;;;31.32;nan
25560;BME280;13450;49.374;8.584;2023-08-12T12:48:54;100572.13;;;30.74;nan
25560;BME280;13450;49.374;8.584;2023-08-12T12:51:20;100591.84;;;29.44;nan
25560;BME280;13450;49.374;8.584;2023-08-12T12:53:45;100598.28;;;28.69;nan
25560;BME280;13450;49.374;8.584;2023-08-12T12:56:10;100607.41;;;27.84;nan
25560;BME280;13450;49.374;8.584;2023-08-12T12:58:37;100624.03;;;27.10;nan
25560;BME280;13450;49.374;8.584;2023-08-12T13:01:05;100611.31;;;26.01;nan
25560;BME280;13450;49.374;8.584;2023-08-12T13:03:31;100581.13;;;25.66;nan
25560;BME280;13450;49.374;8.584;2023-08-12T13:05:57;100552.44;;;27.84;nan
25560;BME280;13450;49.374;8.584;2023-08-12T13:08:23;100576.84;;;27.71;nan
25560;BME280;13450;49.374;8.584;2023-08-12T13:10:48;100586.84;;;27.81;nan